Аэропорт
Кишинев (LUKK)

 LUKK / KIV

Moldova, Republic of
MD-C
Кишинев
 46.92770, 28.93100  / 399 ft

 LUKK 261230Z 36005KT CAVOK 04/M01 Q1007 R08/290150 NOSIG
 TAF LUKK 252320Z 2600/2624 22008KT CAVOK PROB40 TEMPO 2604/2607 -FZRA -SN BKN015 BECMG 2609/2611 34006KT
Название сценария Тип сценария Flight Simulator 9 Flight Simulator X Prepar3D v2 Prepar3D v3 Prepar3D v4 Prepar3D v5 xPlane
LUKK Chisinau X платный(+демо)


2020 © VATRUS division (Privacy Policy)